Apia Wharf, Samoa

7:49 AM WST on September 03, 2014 (GMT +1300)
Faleolo International | Change Station
CLOSE
Current Station
Airport
Location: Faleolo,
Elevation: 16 ft
Nearby Weather Stations

Elev 16 ft 13.83 °S, 172.01 °W | Updated 49 minutes ago

Scattered Clouds
Scattered Clouds
70 °F
Feels Like 70 °F
N
5
Wind Variable Wind from ESE

Today
High -- | Low -- °F
--% Chance of Precip.
Yesterday
High -- | Low -- °F
Precip. -- in
6:30 AM 6:22 PM
First Quarter, 54% visible
Pressure 29.92 in
Visibility 6.2 miles
Clouds Few 2500 ft
Scattered Clouds 15000 ft
Dew Point 68 °F
Humidity 94%
Rainfall 0.00 in
Snow Depth Not available.
UV 0 out of 12
Pollen Not available.
Air Quality Not available.
Flu Activity Not available.
METAR NSFA 021800Z 11004KT 9999 FEW025 SCT150 21/20 Q1013

More Conditions Fewer Conditions

Pressure 29.92 in
Visibility 6.2 miles
Clouds Few 2500 ft
Scattered Clouds 15000 ft
Dew Point 68 °F
Humidity 94%
Rainfall 0.00 in
Snow Depth Not available.
UV 0 out of 12
Pollen Not available.
Air Quality Not available.
Flu Activity Not available.
METAR NSFA 021800Z 11004KT 9999 FEW025 SCT150 21/20 Q1013

More Conditions Fewer Conditions

10-Day Weather Forecast

Almanac

Astronomy

Sep. 03, 2014 Rise Set
Actual Time 6:30 AM WST 6:22 PM WST
Civil Twilight 6:08 AM WST 6:43 PM WST
Nautical Twilight 5:43 AM WST 7:08 PM WST
Astronomical Twilight 5:19 AM WST 7:33 PM WST
Moon 12:25 PM WST (9/3) 12:35 AM WST (9/3)
Length of Visible Light 12h 35m
Length of Day
11h 52m
Tomorrow will be 0m 43s longer.
First Quarter, 54% of the Moon is Illuminated
Sep 2
First Quarter
Sep 8
Full
Sep 15
Last Quarter
Sep 24
New
Oct 1
First Quarter

Yesterday's Extremes

Country Highs Country Lows

Community

WunderPhotos

Upload Photos

1,749,743 photos uploaded!

WunderBlogs® & News

By Dr. Jeff Masters
Director of Meteorology, Weather Underground
By Kari Strenfel
Meteorologist, Weather Underground
By Christopher C. Burt
Weather Historian, Weather Underground
September 2, 2014
September 2, 2014
September 2, 2014

Nearby

Snow Depth

Not available.

Earthquake Activity

City Distance Mag. Time & Date
No recent earthquake activity has been reported nearby.
Minimum magnitude displayed is 2.5.

Coastal Water Temperatures

Place Temperature
No Stations Reporting

Nearby Weather Stations